Time;durP1;ratioP1;P1;durP2;ratioP2;P2;SDS_P1;SDS_P2;PMS_P1;PMS_P2;Temp;Humidity;BMP_temperature;BMP_pressure;BME280_temperature;BME280_humidity;BME280_pressure;Samples;Min_cycle;Max_cycle;Signal;HPM_P1;HPM_P2
2023/04/25 00:00:16;;;;;;;1.00;1.00;;;;;;;11.69;100.00;98535.16;6159599;23;20170;-80
2023/04/25 00:02:43;;;;;;;0.97;0.97;;;;;;;11.64;100.00;98542.34;6135113;23;20174;-80
2023/04/25 00:05:10;;;;;;;2.20;1.40;;;;;;;11.68;100.00;98540.75;6159771;23;20174;-79
2023/04/25 00:07:38;;;;;;;1.60;1.13;;;;;;;11.67;100.00;98531.09;6159067;23;20189;-81
2023/04/25 00:10:06;;;;;;;2.07;1.30;;;;;;;11.72;100.00;98541.88;6110492;23;20198;-80
2023/04/25 00:12:33;;;;;;;1.37;1.27;;;;;;;11.76;99.51;98534.97;6134571;23;20621;-80
2023/04/25 00:15:00;;;;;;;1.93;1.23;;;;;;;11.68;99.63;98538.09;6110312;23;20737;-80
2023/04/25 00:17:26;;;;;;;1.50;1.40;;;;;;;11.70;98.93;98534.09;6135002;23;20163;-80
2023/04/25 00:19:53;;;;;;;1.60;1.10;;;;;;;11.72;99.65;98528.47;6110430;23;20170;-80
2023/04/25 00:22:20;;;;;;;1.67;1.20;;;;;;;11.63;100.00;98556.81;6158903;23;20252;-79
2023/04/25 00:24:47;;;;;;;1.40;1.30;;;;;;;11.61;99.81;98529.44;6110025;23;20198;-80
2023/04/25 00:27:13;;;;;;;2.03;1.20;;;;;;;11.65;99.18;98541.28;6110001;23;20508;-81
2023/04/25 00:29:40;;;;;;;1.20;1.20;;;;;;;11.57;98.81;98542.53;6110410;23;20257;-82
2023/04/25 00:32:07;;;;;;;1.70;1.50;;;;;;;11.59;99.56;98537.72;6134499;23;20177;-79
2023/04/25 00:34:34;;;;;;;1.40;1.30;;;;;;;11.55;99.79;98541.16;6110308;23;20190;-79
2023/04/25 00:37:03;;;;;;;1.53;1.43;;;;;;;11.49;98.93;98537.63;6134587;23;20214;-82
2023/04/25 00:39:30;;;;;;;2.57;1.40;;;;;;;11.54;98.26;98536.84;6134962;23;20162;-81
2023/04/25 00:41:57;;;;;;;1.10;1.00;;;;;;;11.57;97.13;98537.16;6134436;23;20174;-80
2023/04/25 00:44:24;;;;;;;1.30;1.20;;;;;;;11.57;99.04;98531.78;6133866;23;20170;-81
2023/04/25 00:46:52;;;;;;;2.00;1.40;;;;;;;11.56;97.36;98527.50;6108968;23;20209;-82
2023/04/25 00:49:19;;;;;;;1.50;1.40;;;;;;;11.57;97.93;98515.69;6133210;23;20198;-80
2023/04/25 00:51:45;;;;;;;2.07;1.50;;;;;;;11.56;97.51;98518.66;6109002;23;20174;-82
2023/04/25 00:54:12;;;;;;;2.90;1.30;;;;;;;11.59;97.25;98516.28;6134055;23;20726;-80
2023/04/25 00:56:40;;;;;;;2.63;1.37;;;;;;;11.54;98.69;98526.13;6134330;23;20174;-80
2023/04/25 00:59:06;;;;;;;1.97;1.50;;;;;;;11.48;98.54;98523.38;6134156;23;20166;-80
2023/04/25 01:01:33;;;;;;;2.10;1.60;;;;;;;11.48;97.47;98509.97;6110084;23;20170;-80
2023/04/25 01:04:00;;;;;;;1.47;1.37;;;;;;;11.43;98.90;98515.28;6110021;23;20177;-81
2023/04/25 01:06:28;;;;;;;1.80;1.30;;;;;;;11.40;98.79;98526.53;6133903;23;20217;-81
2023/04/25 01:08:55;;;;;;;1.77;1.53;;;;;;;11.35;99.58;98526.47;6134539;23;20613;-81
2023/04/25 01:11:21;;;;;;;1.50;1.40;;;;;;;11.37;99.23;98526.22;6109966;23;20201;-80
2023/04/25 01:13:48;;;;;;;2.47;1.63;;;;;;;11.39;99.02;98513.34;6134039;23;20186;-81
2023/04/25 01:16:15;;;;;;;2.07;1.60;;;;;;;11.24;100.00;98519.38;6134327;23;20573;-80
2023/04/25 01:18:42;;;;;;;2.10;1.30;;;;;;;11.35;100.00;98512.25;6134181;23;20180;-80
2023/04/25 01:21:10;;;;;;;1.60;1.50;;;;;;;11.37;99.99;98510.13;6134209;23;20216;-80
2023/04/25 01:23:39;;;;;;;1.67;1.57;;;;;;;11.27;99.46;98513.50;6109851;23;20202;-81
2023/04/25 01:26:09;;;;;;;2.43;1.60;;;;;;;11.25;99.91;98509.44;6133934;23;20675;-82
2023/04/25 01:28:36;;;;;;;1.43;1.33;;;;;;;11.17;100.00;98505.34;6109766;23;20667;-80
2023/04/25 01:31:04;;;;;;;2.37;1.40;;;;;;;11.17;100.00;98512.56;6133962;23;20696;-82
2023/04/25 01:33:30;;;;;;;2.87;1.50;;;;;;;11.28;99.72;98508.97;6109141;23;20253;-82
2023/04/25 01:35:57;;;;;;;3.17;1.43;;;;;;;11.23;99.65;98508.91;6109465;23;20217;-82
2023/04/25 01:38:24;;;;;;;1.77;1.47;;;;;;;11.16;100.00;98517.13;6109886;23;20197;-81
2023/04/25 01:40:52;;;;;;;1.93;1.60;;;;;;;11.10;100.00;98515.47;6134197;23;20198;-80
2023/04/25 01:43:18;;;;;;;1.50;1.40;;;;;;;11.10;100.00;98495.88;6133808;23;20252;-80
2023/04/25 01:45:45;;;;;;;1.50;1.40;;;;;;;11.22;100.00;98512.63;6133454;23;20656;-80
2023/04/25 01:48:13;;;;;;;1.60;1.50;;;;;;;11.09;100.00;98513.03;6158089;23;20189;-80
2023/04/25 01:50:43;;;;;;;1.60;1.50;;;;;;;11.07;100.00;98521.31;6110749;23;20174;-80
2023/04/25 01:53:12;;;;;;;2.03;1.43;;;;;;;11.02;100.00;98507.84;6109786;23;20174;-81
2023/04/25 01:55:40;;;;;;;1.70;1.50;;;;;;;11.04;100.00;98509.22;6134332;23;20688;-81
2023/04/25 01:58:12;;;;;;;1.60;1.50;;;;;;;11.02;100.00;98508.66;6134160;23;20518;-81
2023/04/25 02:00:58;;;;;;;2.83;1.73;;;;;;;10.97;100.00;98513.13;6142561;23;20168;-79
2023/04/25 02:03:31;;;;;;;1.50;1.40;;;;;;;11.01;100.00;98516.97;6134912;23;20208;-81
2023/04/25 02:05:59;;;;;;;1.60;1.50;;;;;;;10.94;100.00;98510.97;6134032;23;20177;-80
2023/04/25 02:08:27;;;;;;;1.90;1.70;;;;;;;10.88;100.00;98510.06;6109725;23;20170;-81
2023/04/25 02:10:54;;;;;;;2.57;1.70;;;;;;;10.90;100.00;98517.88;6109857;23;20179;-80
2023/04/25 02:13:22;;;;;;;2.37;1.70;;;;;;;10.79;100.00;98519.59;6133951;23;20178;-80
2023/04/25 02:15:57;;;;;;;1.77;1.60;;;;;;;10.95;100.00;98520.63;6135845;23;20209;-80
2023/04/25 02:18:26;;;;;;;3.30;1.60;;;;;;;10.91;100.00;98520.31;6109240;23;20170;-80
2023/04/25 02:20:52;;;;;;;1.80;1.70;;;;;;;10.75;100.00;98510.44;6110205;23;20166;-81
2023/04/25 02:23:19;;;;;;;1.97;1.77;;;;;;;10.91;100.00;98509.59;6134693;23;20209;-79
2023/04/25 02:25:46;;;;;;;2.03;1.93;;;;;;;10.92;100.00;98513.88;6158755;23;20177;-80
2023/04/25 02:28:13;;;;;;;1.97;1.57;;;;;;;10.84;100.00;98508.16;6157953;23;20221;-80
2023/04/25 02:30:39;;;;;;;1.97;1.50;;;;;;;10.82;100.00;98521.00;6158952;23;20174;-81
2023/04/25 02:33:06;;;;;;;2.13;1.90;;;;;;;10.71;100.00;98511.19;6158171;23;20193;-82
2023/04/25 02:35:35;;;;;;;1.97;1.70;;;;;;;10.71;100.00;98508.50;6158743;23;20690;-81
2023/04/25 02:38:02;;;;;;;1.77;1.67;;;;;;;10.59;100.00;98505.94;6158483;23;20266;-80
2023/04/25 02:40:28;;;;;;;1.80;1.70;;;;;;;10.48;100.00;98514.88;6134030;23;20177;-82
2023/04/25 02:42:56;;;;;;;2.00;1.80;;;;;;;10.48;100.00;98513.03;6158601;23;20166;-81
2023/04/25 02:45:25;;;;;;;1.70;1.60;;;;;;;10.44;100.00;98503.06;6134738;23;20170;-81
2023/04/25 02:47:52;;;;;;;1.70;1.60;;;;;;;10.47;100.00;98502.53;6157976;23;20281;-80
2023/04/25 02:50:19;;;;;;;2.57;1.70;;;;;;;10.36;100.00;98506.16;6133763;23;20170;-81
2023/04/25 02:52:46;;;;;;;2.20;1.70;;;;;;;10.32;100.00;98507.66;6184152;23;20167;-81
2023/04/25 02:55:17;;;;;;;2.03;1.70;;;;;;;10.44;100.00;98498.50;6158837;23;20183;-81
2023/04/25 02:57:44;;;;;;;2.90;1.50;;;;;;;10.35;100.00;98491.94;6134199;23;20613;-80
2023/04/25 03:00:18;;;;;;;1.80;1.70;;;;;;;10.33;100.00;98494.03;6136592;23;20170;-81
2023/04/25 03:02:45;;;;;;;1.97;1.77;;;;;;;10.37;100.00;98497.03;6158263;23;20209;-82
2023/04/25 03:05:12;;;;;;;1.53;1.43;;;;;;;10.34;100.00;98498.34;6158205;23;20186;-80
2023/04/25 03:07:39;;;;;;;2.20;1.67;;;;;;;10.33;100.00;98502.06;6157975;23;20167;-81
2023/04/25 03:10:09;;;;;;;1.60;1.47;;;;;;;10.35;100.00;98499.97;6135016;23;20264;-80
2023/04/25 03:12:36;;;;;;;2.00;1.80;;;;;;;10.32;100.00;98513.84;6134065;23;20170;-81
2023/04/25 03:15:04;;;;;;;1.70;1.60;;;;;;;10.30;100.00;98509.81;6135651;23;20632;-80
2023/04/25 03:17:30;;;;;;;2.10;1.90;;;;;;;10.15;100.00;98503.16;6135153;23;20216;-80
2023/04/25 03:19:57;;;;;;;1.70;1.60;;;;;;;10.20;100.00;98502.41;6135766;23;20170;-83
2023/04/25 03:22:24;;;;;;;2.23;1.80;;;;;;;10.05;100.00;98502.94;6159881;23;20177;-80
2023/04/25 03:24:51;;;;;;;2.03;1.90;;;;;;;9.94;100.00;98503.84;6135271;23;20210;-80
2023/04/25 03:27:19;;;;;;;2.40;1.60;;;;;;;10.06;100.00;98509.13;6111258;23;20181;-82
2023/04/25 03:29:46;;;;;;;2.00;1.80;;;;;;;9.92;100.00;98518.53;6111391;23;20225;-80
2023/04/25 03:32:12;;;;;;;1.83;1.50;;;;;;;9.84;100.00;98521.59;6134781;23;20174;-81
2023/04/25 03:34:39;;;;;;;1.60;1.50;;;;;;;9.86;100.00;98517.63;6110709;23;20190;-81
2023/04/25 03:37:06;;;;;;;1.80;1.70;;;;;;;9.87;100.00;98518.44;6134801;23;20166;-79
2023/04/25 03:39:37;;;;;;;2.60;1.70;;;;;;;10.02;100.00;98519.50;6135231;23;20204;-81
2023/04/25 03:42:05;;;;;;;2.23;1.80;;;;;;;9.92;100.00;98519.34;6135811;23;20616;-81
2023/04/25 03:44:32;;;;;;;1.70;1.60;;;;;;;9.80;100.00;98523.13;6135122;23;20193;-81
2023/04/25 03:47:00;;;;;;;3.23;1.60;;;;;;;9.80;100.00;98513.22;6134785;23;20170;-79
2023/04/25 03:49:26;;;;;;;2.87;1.50;;;;;;;9.73;100.00;98525.94;6134489;23;20194;-80
2023/04/25 03:51:57;;;;;;;1.83;1.60;;;;;;;9.85;100.00;98529.34;6135586;23;20167;-82
2023/04/25 03:54:24;;;;;;;1.80;1.70;;;;;;;9.76;100.00;98532.66;6134651;23;20193;-80
2023/04/25 03:57:14;;;;;;;2.53;1.70;;;;;;;9.74;100.00;98530.25;6153599;23;20182;-80
2023/04/25 03:59:42;;;;;;;1.70;1.60;;;;;;;9.68;100.00;98536.56;6159332;23;20678;-79
2023/04/25 04:02:11;;;;;;;2.80;1.70;;;;;;;9.54;100.00;98544.06;6111122;23;20253;-80
2023/04/25 04:04:38;;;;;;;1.80;1.70;;;;;;;9.53;100.00;98544.28;6135164;23;20640;-81
2023/04/25 04:07:06;;;;;;;2.87;1.70;;;;;;;9.56;100.00;98543.84;6158791;23;20174;-81
2023/04/25 04:09:35;;;;;;;2.00;1.80;;;;;;;9.53;100.00;98545.09;6135107;23;20170;-80
2023/04/25 04:12:07;;;;;;;1.90;1.70;;;;;;;9.48;100.00;98544.19;6135685;23;20162;-81
2023/04/25 04:14:35;;;;;;;3.73;2.10;;;;;;;9.66;100.00;98539.47;6134659;23;20190;-81
2023/04/25 04:17:02;;;;;;;2.23;2.03;;;;;;;9.48;100.00;98552.22;6110241;23;20202;-80
2023/04/25 04:19:29;;;;;;;1.87;1.67;;;;;;;9.36;100.00;98546.91;6110624;23;20454;-80
2023/04/25 04:22:23;;;;;;;2.57;1.63;;;;;;;9.37;100.00;98553.09;6143495;23;20174;-80
2023/04/25 04:24:51;;;;;;;2.23;1.73;;;;;;;9.41;100.00;98551.56;6133898;23;20205;-80
2023/04/25 04:27:23;;;;;;;2.10;1.90;;;;;;;9.34;100.00;98559.69;6112405;23;20183;-80
2023/04/25 04:30:04;;;;;;;2.53;1.77;;;;;;;9.33;100.00;98554.63;6116129;23;20166;-81
2023/04/25 04:32:37;;;;;;;3.00;1.83;;;;;;;9.29;100.00;98557.75;6160895;23;20146;-80
2023/04/25 04:35:06;;;;;;;2.07;1.90;;;;;;;9.35;100.00;98552.50;6111051;23;20248;-80
2023/04/25 04:37:33;;;;;;;4.03;2.10;;;;;;;9.26;100.00;98557.41;6110792;23;20628;-79
2023/04/25 04:40:05;;;;;;;2.13;1.93;;;;;;;9.40;100.00;98565.97;6111018;23;20241;-80
2023/04/25 04:42:45;;;;;;;2.00;1.90;;;;;;;9.46;100.00;98563.16;6116124;23;20186;-80
2023/04/25 04:45:30;;;;;;;2.10;1.90;;;;;;;9.46;100.00;98568.50;6153223;23;20163;-81
2023/04/25 04:48:16;;;;;;;2.17;2.00;;;;;;;9.28;100.00;98564.13;6163179;23;20290;-82
2023/04/25 04:51:01;;;;;;;2.30;2.10;;;;;;;9.18;100.00;98557.78;6151505;23;20158;-81
2023/04/25 04:53:51;;;;;;;2.27;2.07;;;;;;;9.24;100.00;98556.81;6145317;23;20174;-80
2023/04/25 04:56:41;;;;;;;2.23;2.03;;;;;;;9.23;100.00;98557.91;6108956;23;20557;-80
2023/04/25 04:59:25;;;;;;;3.80;2.33;;;;;;;9.13;100.00;98566.50;6135991;23;20170;-81
2023/04/25 05:02:21;;;;;;;2.70;2.30;;;;;;;9.20;100.00;98563.69;6138267;23;20178;-81
2023/04/25 05:05:01;;;;;;;2.40;2.17;;;;;;;9.21;100.00;98565.31;6134988;23;20166;-82
2023/04/25 05:07:46;;;;;;;3.07;2.13;;;;;;;9.06;100.00;98555.13;6135699;23;20212;-81
2023/04/25 05:10:42;;;;;;;3.10;2.13;;;;;;;9.09;100.00;98549.34;6060350;23;20177;-80
2023/04/25 05:13:18;;;;;;;2.97;2.50;;;;;;;9.18;100.00;98558.59;6137822;23;20173;-80
2023/04/25 05:16:08;;;;;;;2.43;2.23;;;;;;;9.29;100.00;98562.28;6162781;23;20193;-81
2023/04/25 05:18:58;;;;;;;3.03;2.37;;;;;;;9.24;100.00;98559.50;6148137;23;20174;-81
2023/04/25 05:21:50;;;;;;;2.33;2.13;;;;;;;9.22;100.00;98557.06;6120754;23;20238;-83
2023/04/25 05:24:43;;;;;;;3.50;2.20;;;;;;;9.21;100.00;98558.13;6125187;23;20257;-81
2023/04/25 05:27:29;;;;;;;2.50;2.30;;;;;;;9.28;100.00;98563.34;6142390;23;20221;-80
2023/04/25 05:30:15;;;;;;;6.30;2.40;;;;;;;9.32;100.00;98561.00;6142214;23;20182;-80
2023/04/25 05:32:58;;;;;;;3.93;2.27;;;;;;;9.50;100.00;98558.97;6183112;23;20601;-80
2023/04/25 05:35:26;;;;;;;4.43;2.37;;;;;;;9.76;100.00;98562.91;6110070;23;20197;-81
2023/04/25 05:37:53;;;;;;;2.13;1.93;;;;;;;10.08;100.00;98558.66;6134392;23;20565;-81
2023/04/25 05:40:30;;;;;;;2.47;2.10;;;;;;;10.38;100.00;98552.22;6114286;23;20176;-81
2023/04/25 05:43:10;;;;;;;2.40;2.00;;;;;;;10.63;100.00;98555.28;6136749;23;20166;-80
2023/04/25 05:45:53;;;;;;;2.80;2.10;;;;;;;10.78;100.00;98552.03;6116437;23;20177;-81
2023/04/25 05:48:50;;;;;;;2.30;2.07;;;;;;;11.02;100.00;98548.84;6135306;23;20187;-81
2023/04/25 05:51:41;;;;;;;4.60;2.00;;;;;;;11.25;100.00;98553.16;6138929;23;20170;-81
2023/04/25 05:54:19;;;;;;;2.30;2.10;;;;;;;11.49;100.00;98549.16;6135247;23;20240;-80
2023/04/25 05:56:46;;;;;;;2.23;1.73;;;;;;;11.66;100.00;98548.28;6133013;23;20181;-81
2023/04/25 05:59:13;;;;;;;2.80;2.03;;;;;;;11.75;100.00;98539.56;6132363;23;20566;-80
2023/04/25 06:01:41;;;;;;;3.23;2.00;;;;;;;11.96;100.00;98545.91;6109480;23;20186;-80
2023/04/25 06:04:07;;;;;;;2.30;2.10;;;;;;;12.15;100.00;98552.53;6109216;23;20178;-81
2023/04/25 06:06:34;;;;;;;2.60;2.40;;;;;;;12.24;100.00;98542.94;6109599;23;20218;-81
2023/04/25 06:09:01;;;;;;;2.60;2.40;;;;;;;12.41;100.00;98545.47;6108909;23;20237;-81
2023/04/25 06:11:30;;;;;;;2.37;2.10;;;;;;;12.32;99.12;98537.09;6133891;23;20166;-80
2023/04/25 06:13:57;;;;;;;2.43;2.20;;;;;;;12.35;99.74;98543.84;6133449;23;20178;-81
2023/04/25 06:16:25;;;;;;;3.73;2.20;;;;;;;12.59;98.02;98533.53;6133594;23;20197;-82
2023/04/25 06:18:53;;;;;;;1.97;1.77;;;;;;;12.64;99.20;98536.25;6134131;23;20205;-83
2023/04/25 06:21:20;;;;;;;1.97;1.63;;;;;;;12.89;98.18;98536.38;6134077;23;20170;-82
2023/04/25 06:23:49;;;;;;;2.27;1.83;;;;;;;12.90;95.78;98534.50;6133847;23;20875;-81
2023/04/25 06:26:20;;;;;;;2.07;1.87;;;;;;;13.04;94.30;98525.72;6111106;23;20174;-81
2023/04/25 06:28:48;;;;;;;1.87;1.77;;;;;;;13.15;92.65;98535.47;6157155;23;20236;-81
2023/04/25 06:31:15;;;;;;;2.00;1.80;;;;;;;13.11;90.90;98533.59;6108184;23;20247;-81
2023/04/25 06:33:43;;;;;;;1.90;1.80;;;;;;;13.26;91.13;98527.44;6108911;23;20185;-81
2023/04/25 06:36:10;;;;;;;1.70;1.60;;;;;;;13.28;90.98;98531.50;6107910;23;20191;-81
2023/04/25 06:38:37;;;;;;;2.17;1.97;;;;;;;13.20;88.42;98522.03;6108525;23;20181;-82
2023/04/25 06:41:04;;;;;;;1.80;1.70;;;;;;;13.44;87.34;98524.25;6157131;23;20166;-81
2023/04/25 06:43:34;;;;;;;3.07;1.80;;;;;;;13.53;88.02;98530.78;6110311;23;20197;-81
2023/04/25 06:46:01;;;;;;;1.63;1.53;;;;;;;13.61;87.57;98519.50;6158749;23;20179;-81
2023/04/25 06:48:30;;;;;;;1.73;1.63;;;;;;;13.80;86.49;98528.69;6134972;23;20206;-81
2023/04/25 06:50:58;;;;;;;2.90;1.87;;;;;;;13.89;85.71;98528.97;6111613;23;20170;-80
2023/04/25 06:53:25;;;;;;;2.40;1.53;;;;;;;13.87;85.70;98523.03;6159661;23;20175;-81
2023/04/25 06:55:58;;;;;;;1.77;1.40;;;;;;;13.98;86.91;98521.97;6136133;23;20182;-81
2023/04/25 06:58:33;;;;;;;2.47;1.70;;;;;;;14.13;84.89;98519.28;6114434;23;20213;-81
2023/04/25 07:01:09;;;;;;;2.00;1.80;;;;;;;14.27;83.29;98514.16;6115033;23;20236;-80
2023/04/25 07:03:37;;;;;;;1.83;1.73;;;;;;;14.32;81.71;98511.47;6135313;23;20171;-82
2023/04/25 07:06:09;;;;;;;3.23;1.77;;;;;;;14.39;81.71;98501.25;6136559;23;20636;-80
2023/04/25 07:08:36;;;;;;;2.40;1.83;;;;;;;14.50;80.21;98509.06;6110576;23;20168;-79
2023/04/25 07:11:02;;;;;;;1.63;1.53;;;;;;;14.62;79.13;98505.25;6135526;23;20183;-81
2023/04/25 07:13:29;;;;;;;2.03;1.70;;;;;;;14.40;79.14;98495.59;6110881;23;20180;-80
2023/04/25 07:15:56;;;;;;;2.00;1.70;;;;;;;14.45;80.11;98487.50;6159712;23;20183;-81
2023/04/25 07:18:24;;;;;;;2.10;1.70;;;;;;;14.51;80.66;98502.56;6110924;23;20167;-79
2023/04/25 07:20:51;;;;;;;2.17;1.97;;;;;;;14.58;78.98;98499.59;6111315;23;20176;-80
2023/04/25 07:23:18;;;;;;;1.47;1.37;;;;;;;14.63;78.87;98491.50;6136599;23;20204;-79
2023/04/25 07:25:46;;;;;;;2.90;2.07;;;;;;;14.25;77.28;98482.09;6183991;23;20265;-80
2023/04/25 07:28:17;;;;;;;1.40;1.30;;;;;;;14.45;78.95;98475.91;6160555;23;20175;-80
2023/04/25 07:30:46;;;;;;;2.17;1.60;;;;;;;14.53;79.76;98486.94;6136123;23;20175;-80
2023/04/25 07:33:13;;;;;;;2.23;1.60;;;;;;;14.31;76.30;98483.72;6135389;23;20176;-79
2023/04/25 07:35:39;;;;;;;1.67;1.40;;;;;;;14.55;77.00;98483.97;6159696;23;20197;-80
2023/04/25 07:38:06;;;;;;;3.27;1.50;;;;;;;14.50;77.23;98486.69;6159895;23;20175;-80
2023/04/25 07:40:34;;;;;;;5.03;1.67;;;;;;;14.37;78.17;98482.66;6159044;23;20254;-84
2023/04/25 07:43:05;;;;;;;2.10;1.60;;;;;;;14.60;78.42;98480.47;6136002;23;20174;-82
2023/04/25 07:45:46;;;;;;;2.60;1.70;;;;;;;14.31;76.44;98469.44;6160570;23;20164;-80
2023/04/25 07:48:20;;;;;;;1.70;1.37;;;;;;;14.59;79.17;98478.84;6158925;23;20202;-81
2023/04/25 07:50:50;;;;;;;1.97;1.40;;;;;;;14.48;76.51;98467.28;6136106;23;20221;-81
2023/04/25 07:53:18;;;;;;;1.90;1.77;;;;;;;14.56;75.49;98464.00;6135089;23;20217;-80
2023/04/25 07:55:51;;;;;;;3.37;1.57;;;;;;;14.66;76.63;98474.78;6160672;23;20640;-80
2023/04/25 07:58:21;;;;;;;2.47;1.90;;;;;;;14.93;77.09;98450.16;6134929;23;20174;-80
2023/04/25 08:00:53;;;;;;;2.27;1.67;;;;;;;15.37;75.52;98477.19;6160954;23;20224;-80
2023/04/25 08:03:39;;;;;;;1.63;1.37;;;;;;;15.43;75.07;98468.00;6183949;23;20171;-79
2023/04/25 08:06:13;;;;;;;1.80;1.70;;;;;;;15.42;73.39;98461.78;6161008;23;20233;-80
2023/04/25 08:08:53;;;;;;;2.27;1.83;;;;;;;15.34;72.56;98467.78;6139895;23;20174;-82
2023/04/25 08:11:24;;;;;;;1.70;1.60;;;;;;;15.26;73.29;98464.81;6183990;23;20174;-80
2023/04/25 08:13:51;;;;;;;1.80;1.30;;;;;;;15.04;72.94;98473.31;6159466;23;20230;-80
2023/04/25 08:16:18;;;;;;;2.33;1.43;;;;;;;14.90;72.96;98456.91;6159305;23;20274;-80
2023/04/25 08:18:45;;;;;;;1.67;1.57;;;;;;;15.21;72.80;98464.88;6159267;23;20259;-80
2023/04/25 08:21:13;;;;;;;1.90;1.67;;;;;;;15.11;72.83;98460.34;6133794;23;20177;-81
2023/04/25 08:23:40;;;;;;;1.70;1.43;;;;;;;15.26;71.75;98454.03;6157859;23;20251;-80
2023/04/25 08:26:13;;;;;;;1.60;1.40;;;;;;;15.04;72.67;98453.59;6157824;23;20560;-80
2023/04/25 08:28:41;;;;;;;1.97;1.70;;;;;;;15.06;71.42;98454.97;6158349;23;20175;-80
2023/04/25 08:31:08;;;;;;;1.60;1.50;;;;;;;15.30;72.55;98457.81;6157687;23;20173;-80
2023/04/25 08:33:45;;;;;;;1.40;1.30;;;;;;;15.59;72.90;98461.44;6138394;23;20246;-80
2023/04/25 08:36:23;;;;;;;1.93;1.53;;;;;;;15.83;70.23;98456.13;6160732;23;20183;-81
2023/04/25 08:38:58;;;;;;;1.33;1.23;;;;;;;15.93;69.98;98455.25;6136278;23;20165;-81
2023/04/25 08:41:26;;;;;;;1.60;1.50;;;;;;;16.38;68.92;98441.31;6134075;23;20251;-83
2023/04/25 08:43:53;;;;;;;1.90;1.67;;;;;;;16.38;69.93;98448.66;6182883;23;20265;-80
2023/04/25 08:46:20;;;;;;;1.40;1.30;;;;;;;16.15;67.53;98463.69;6133474;23;20229;-79
2023/04/25 08:49:05;;;;;;;1.33;1.23;;;;;;;16.23;67.61;98452.31;6161446;23;20200;-81
2023/04/25 08:51:32;;;;;;;1.50;1.40;;;;;;;16.75;67.58;98458.84;6157920;23;20264;-81
2023/04/25 08:54:12;;;;;;;1.30;1.20;;;;;;;17.29;63.13;98437.56;6134795;23;20176;-79
2023/04/25 08:56:45;;;;;;;1.50;1.30;;;;;;;17.12;63.96;98448.09;6135484;23;20238;-80
2023/04/25 08:59:12;;;;;;;1.30;1.20;;;;;;;17.28;63.86;98449.50;6157756;23;20173;-79
2023/04/25 09:01:41;;;;;;;2.20;1.40;;;;;;;17.64;62.99;98444.41;6157806;23;20199;-79
2023/04/25 09:04:07;;;;;;;2.17;1.30;;;;;;;17.65;62.05;98445.22;6132880;23;20212;-80
2023/04/25 09:06:34;;;;;;;1.90;1.40;;;;;;;18.04;61.85;98449.19;6157183;23;20625;-80
2023/04/25 09:09:04;;;;;;;2.00;1.30;;;;;;;17.65;61.23;98458.75;6182160;23;20636;-80
2023/04/25 09:11:32;;;;;;;2.80;1.40;;;;;;;17.79;61.79;98455.00;6181615;23;20167;-80
2023/04/25 09:14:15;;;;;;;2.23;1.27;;;;;;;17.98;60.97;98457.69;6158291;23;20252;-80
2023/04/25 09:17:00;;;;;;;1.30;1.20;;;;;;;17.98;59.79;98453.06;6140110;23;20191;-81
2023/04/25 09:19:39;;;;;;;1.97;1.30;;;;;;;18.05;59.47;98455.41;6138678;23;20174;-81
2023/04/25 09:22:18;;;;;;;1.47;1.30;;;;;;;18.22;59.91;98454.84;6160590;23;20178;-80
2023/04/25 09:24:45;;;;;;;3.03;1.50;;;;;;;18.07;60.01;98453.19;6139380;23;20194;-80
2023/04/25 09:27:20;;;;;;;1.40;1.27;;;;;;;19.05;59.92;98464.72;6134025;23;20216;-82
2023/04/25 09:29:56;;;;;;;1.93;1.47;;;;;;;18.65;56.91;98456.28;6132633;23;20174;-79
2023/04/25 09:32:24;;;;;;;2.17;1.40;;;;;;;18.32;56.06;98444.66;6133503;23;20170;-81
2023/04/25 09:34:55;;;;;;;1.50;1.40;;;;;;;18.23;56.36;98459.19;6133235;23;20257;-82
2023/04/25 09:37:28;;;;;;;2.10;1.30;;;;;;;17.44;58.40;98463.63;6108913;23;20186;-80
2023/04/25 09:40:13;;;;;;;2.03;1.10;;;;;;;16.68;60.15;98473.50;6142044;23;20169;-81
2023/04/25 09:42:52;;;;;;;1.43;1.30;;;;;;;16.29;62.32;98470.06;6158763;23;20244;-80
2023/04/25 09:45:21;;;;;;;1.50;1.40;;;;;;;15.61;64.70;98471.97;6110377;23;20190;-80
2023/04/25 09:47:50;;;;;;;2.47;1.33;;;;;;;15.48;68.79;98481.47;6110714;23;20196;-81
2023/04/25 09:50:24;;;;;;;2.43;1.00;;;;;;;15.75;67.50;98481.03;6112883;23;20640;-80
2023/04/25 09:53:05;;;;;;;1.13;1.03;;;;;;;15.98;62.75;98468.72;6114020;23;20223;-82
2023/04/25 09:55:56;;;;;;;2.10;1.20;;;;;;;16.32;63.08;98464.09;6119258;23;20195;-81
2023/04/25 09:58:25;;;;;;;1.10;1.00;;;;;;;16.81;61.83;98471.19;6110927;23;20182;-81
2023/04/25 10:00:53;;;;;;;2.10;1.03;;;;;;;16.75;59.91;98469.66;6133561;23;20208;-81
2023/04/25 10:03:35;;;;;;;2.40;1.00;;;;;;;16.62;59.22;98471.13;6135670;23;20167;-80
2023/04/25 10:06:22;;;;;;;0.93;0.90;;;;;;;16.81;58.74;98461.16;6137488;23;20247;-81
2023/04/25 10:08:50;;;;;;;3.10;1.20;;;;;;;16.25;59.46;98463.63;6109797;23;20174;-82
2023/04/25 10:11:18;;;;;;;2.97;1.47;;;;;;;16.91;59.32;98454.84;6134058;23;20172;-81
2023/04/25 10:13:45;;;;;;;2.93;1.33;;;;;;;16.07;62.77;98465.13;6133951;23;20181;-82
2023/04/25 10:16:12;;;;;;;3.70;1.40;;;;;;;16.47;64.66;98455.03;6109538;23;20217;-80
2023/04/25 10:18:39;;;;;;;2.10;2.00;;;;;;;15.82;68.63;98451.81;6133874;23;20175;-80
2023/04/25 10:21:06;;;;;;;2.00;1.80;;;;;;;16.12;69.88;98456.16;6133775;23;20515;-80
2023/04/25 10:23:36;;;;;;;2.83;1.70;;;;;;;16.04;69.22;98449.50;6137360;23;20287;-81
2023/04/25 10:26:03;;;;;;;2.90;1.63;;;;;;;16.13;70.08;98436.97;6134132;23;20221;-80
2023/04/25 10:28:56;;;;;;;3.30;3.10;;;;;;;16.64;68.02;98440.00;6157793;23;20200;-80
2023/04/25 10:31:23;;;;;;;1.87;1.77;;;;;;;16.70;66.64;98446.16;6184268;23;20154;-80
2023/04/25 10:33:50;;;;;;;2.07;1.97;;;;;;;16.78;67.68;98436.59;6133618;23;20232;-80
2023/04/25 10:36:21;;;;;;;2.00;1.90;;;;;;;16.78;67.66;98453.66;6182759;23;20651;-81
2023/04/25 10:38:51;;;;;;;1.97;1.70;;;;;;;16.51;67.45;98478.53;6158097;23;20205;-80
2023/04/25 10:41:20;;;;;;;3.30;1.30;;;;;;;15.90;68.32;98475.53;6134006;23;20181;-80
2023/04/25 10:43:47;;;;;;;1.93;1.27;;;;;;;15.65;68.94;98451.41;6182979;23;20243;-81
2023/04/25 10:46:18;;;;;;;2.77;1.23;;;;;;;15.07;72.50;98463.88;6134009;23;20184;-82
2023/04/25 10:48:51;;;;;;;1.83;1.20;;;;;;;15.25;74.30;98455.94;6158329;23;20184;-80
2023/04/25 10:51:20;;;;;;;1.70;1.30;;;;;;;15.62;75.03;98451.97;6134135;23;20176;-80
2023/04/25 10:54:08;;;;;;;1.87;1.27;;;;;;;15.38;72.29;98449.13;6182810;23;20195;-80
2023/04/25 10:56:40;;;;;;;1.23;0.97;;;;;;;15.88;73.24;98442.59;6157883;23;20196;-80
2023/04/25 10:59:12;;;;;;;1.07;0.80;;;;;;;15.09;73.10;98442.78;6133191;23;20198;-81
2023/04/25 11:01:40;;;;;;;1.37;0.90;;;;;;;15.64;70.85;98442.50;6133642;23;20209;-81
2023/04/25 11:04:20;;;;;;;0.80;0.80;;;;;;;15.58;70.56;98435.53;6182490;23;20254;-80
2023/04/25 11:07:03;;;;;;;2.23;0.90;;;;;;;15.83;71.66;98423.72;6133525;23;20172;-80
2023/04/25 11:09:34;;;;;;;1.00;0.90;;;;;;;16.13;70.55;98428.88;6158799;23;20170;-80
2023/04/25 11:12:01;;;;;;;2.03;1.20;;;;;;;15.95;69.93;98434.19;6133913;23;20169;-79
2023/04/25 11:14:27;;;;;;;2.40;2.03;;;;;;;15.77;68.02;98422.16;6133327;23;20175;-80
2023/04/25 11:16:58;;;;;;;1.13;0.87;;;;;;;15.84;67.60;98415.34;6157886;23;20255;-81
2023/04/25 11:19:27;;;;;;;1.33;1.20;;;;;;;16.38;68.06;98405.41;6134700;23;20157;-80
2023/04/25 11:22:01;;;;;;;1.47;0.80;;;;;;;15.47;71.84;98404.25;6157559;23;20179;-80
2023/04/25 11:24:28;;;;;;;2.03;1.10;;;;;;;15.73;71.46;98413.81;6157666;23;20213;-82
2023/04/25 11:26:57;;;;;;;1.20;1.10;;;;;;;15.79;71.04;98403.78;6157796;23;20209;-81
2023/04/25 11:29:28;;;;;;;1.00;0.90;;;;;;;16.07;72.59;98394.88;6157930;23;20167;-80
2023/04/25 11:31:58;;;;;;;3.00;2.80;;;;;;;16.55;69.20;98403.03;6157709;23;20185;-80
2023/04/25 11:34:25;;;;;;;1.60;1.50;;;;;;;17.03;63.76;98391.09;6160307;23;20158;-81
2023/04/25 11:36:53;;;;;;;1.77;1.40;;;;;;;18.11;63.92;98391.88;6159854;23;20188;-80
2023/04/25 11:39:20;;;;;;;2.93;1.87;;;;;;;18.42;60.80;98392.13;6135376;23;20174;-80
2023/04/25 11:41:47;;;;;;;2.83;1.50;;;;;;;18.57;60.06;98394.56;6159250;23;20253;-80
2023/04/25 11:44:18;;;;;;;1.87;1.77;;;;;;;18.68;59.98;98389.75;6159659;23;20934;-80
2023/04/25 11:46:45;;;;;;;1.10;1.00;;;;;;;18.94;58.67;98398.19;6158712;23;20178;-81
2023/04/25 11:49:13;;;;;;;2.47;1.20;;;;;;;18.65;59.54;98403.94;6158997;23;20217;-81